sensor_id;sensor_type;location;lat;lon;timestamp;pressure;altitude;pressure_sealevel;temperature;humidity
8039;BME280;4062;49.844;8.120;2023-02-10T00:00:15;101170.69;;;14.10;53.41
8039;BME280;4062;49.844;8.120;2023-02-10T00:02:16;101171.59;;;14.09;53.26
8039;BME280;4062;49.844;8.120;2023-02-10T00:04:17;101179.56;;;14.09;53.48
8039;BME280;4062;49.844;8.120;2023-02-10T00:06:20;101174.25;;;14.07;53.54
8039;BME280;4062;49.844;8.120;2023-02-10T00:08:21;101168.94;;;14.07;53.34
8039;BME280;4062;49.844;8.120;2023-02-10T00:10:22;101175.16;;;14.06;53.34
8039;BME280;4062;49.844;8.120;2023-02-10T00:12:23;101177.81;;;14.06;53.24
8039;BME280;4062;49.844;8.120;2023-02-10T00:14:24;101184.03;;;14.06;53.29
8039;BME280;4062;49.844;8.120;2023-02-10T00:16:24;101183.13;;;14.06;53.42
8039;BME280;4062;49.844;8.120;2023-02-10T00:18:26;101183.13;;;14.06;53.43
8039;BME280;4062;49.844;8.120;2023-02-10T00:20:27;101188.44;;;14.06;53.40
8039;BME280;4062;49.844;8.120;2023-02-10T00:22:28;101189.34;;;14.05;53.40
8039;BME280;4062;49.844;8.120;2023-02-10T00:24:29;101185.81;;;14.04;53.48
8039;BME280;4062;49.844;8.120;2023-02-10T00:26:30;101195.53;;;14.05;53.41
8039;BME280;4062;49.844;8.120;2023-02-10T00:28:32;101189.34;;;14.06;53.36
8039;BME280;4062;49.844;8.120;2023-02-10T00:30:33;101199.06;;;14.09;53.32
8039;BME280;4062;49.844;8.120;2023-02-10T00:32:35;101199.94;;;14.11;53.37
8039;BME280;4062;49.844;8.120;2023-02-10T00:34:37;101199.03;;;14.12;53.41
8039;BME280;4062;49.844;8.120;2023-02-10T00:36:40;101195.44;;;14.15;53.34
8039;BME280;4062;49.844;8.120;2023-02-10T00:38:42;101199.88;;;14.16;53.47
8039;BME280;4062;49.844;8.120;2023-02-10T00:40:43;101197.19;;;14.17;53.50
8039;BME280;4062;49.844;8.120;2023-02-10T00:42:44;101204.25;;;14.20;53.33
8039;BME280;4062;49.844;8.120;2023-02-10T00:44:45;101205.16;;;14.20;53.33
8039;BME280;4062;49.844;8.120;2023-02-10T00:46:46;101213.09;;;14.22;53.35
8039;BME280;4062;49.844;8.120;2023-02-10T00:48:47;101220.19;;;14.23;53.42
8039;BME280;4062;49.844;8.120;2023-02-10T00:50:49;101222.84;;;14.23;53.30
8039;BME280;4062;49.844;8.120;2023-02-10T00:52:50;101226.38;;;14.22;53.31
8039;BME280;4062;49.844;8.120;2023-02-10T00:54:51;101229.03;;;14.22;53.41
8039;BME280;4062;49.844;8.120;2023-02-10T00:56:52;101225.53;;;14.21;53.57
8039;BME280;4062;49.844;8.120;2023-02-10T00:58:52;101227.28;;;14.21;53.06
8039;BME280;4062;49.844;8.120;2023-02-10T01:00:54;101226.41;;;14.20;53.43
8039;BME280;4062;49.844;8.120;2023-02-10T01:02:55;101233.50;;;14.20;53.43
8039;BME280;4062;49.844;8.120;2023-02-10T01:04:56;101228.19;;;14.20;53.50
8039;BME280;4062;49.844;8.120;2023-02-10T01:06:57;101231.72;;;14.19;53.44
8039;BME280;4062;49.844;8.120;2023-02-10T01:08:59;101233.53;;;14.18;53.35
8039;BME280;4062;49.844;8.120;2023-02-10T01:11:06;101244.16;;;14.18;53.48
8039;BME280;4062;49.844;8.120;2023-02-10T01:13:10;101230.84;;;14.18;53.13
8039;BME280;4062;49.844;8.120;2023-02-10T01:15:11;101231.75;;;14.17;53.58
8039;BME280;4062;49.844;8.120;2023-02-10T01:17:12;101239.72;;;14.17;53.42
8039;BME280;4062;49.844;8.120;2023-02-10T01:19:13;101232.66;;;14.18;53.33
8039;BME280;4062;49.844;8.120;2023-02-10T01:21:18;101241.53;;;14.17;53.33
8039;BME280;4062;49.844;8.120;2023-02-10T01:23:19;101237.09;;;14.16;53.41
8039;BME280;4062;49.844;8.120;2023-02-10T01:25:20;101246.81;;;14.15;53.27
8039;BME280;4062;49.844;8.120;2023-02-10T01:27:21;101246.81;;;14.15;53.34
8039;BME280;4062;49.844;8.120;2023-02-10T01:29:22;101245.06;;;14.14;53.27
8039;BME280;4062;49.844;8.120;2023-02-10T01:31:23;101242.44;;;14.13;53.31
8039;BME280;4062;49.844;8.120;2023-02-10T01:33:24;101244.22;;;14.12;53.24
8039;BME280;4062;49.844;8.120;2023-02-10T01:35:26;101244.22;;;14.12;53.13
8039;BME280;4062;49.844;8.120;2023-02-10T01:37:27;101239.78;;;14.11;53.31
8039;BME280;4062;49.844;8.120;2023-02-10T01:39:28;101235.38;;;14.10;53.36
8039;BME280;4062;49.844;8.120;2023-02-10T01:41:29;101238.91;;;14.11;53.33
8039;BME280;4062;49.844;8.120;2023-02-10T01:43:30;101243.34;;;14.10;53.20
8039;BME280;4062;49.844;8.120;2023-02-10T01:45:38;101245.09;;;14.10;53.25
8039;BME280;4062;49.844;8.120;2023-02-10T01:47:41;101243.38;;;14.09;53.19
8039;BME280;4062;49.844;8.120;2023-02-10T01:49:47;101253.09;;;14.08;53.21
8039;BME280;4062;49.844;8.120;2023-02-10T01:52:02;101257.56;;;14.07;53.33
8039;BME280;4062;49.844;8.120;2023-02-10T01:54:04;101260.22;;;14.07;53.19
8039;BME280;4062;49.844;8.120;2023-02-10T01:56:07;101254.00;;;14.09;53.26
8039;BME280;4062;49.844;8.120;2023-02-10T01:58:11;101262.00;;;14.05;53.43
8039;BME280;4062;49.844;8.120;2023-02-10T02:00:14;101265.50;;;14.06;53.26
8039;BME280;4062;49.844;8.120;2023-02-10T02:02:18;101261.09;;;14.05;53.48
8039;BME280;4062;49.844;8.120;2023-02-10T02:04:19;101259.34;;;14.04;53.29
8039;BME280;4062;49.844;8.120;2023-02-10T02:06:20;101246.97;;;14.03;53.45
8039;BME280;4062;49.844;8.120;2023-02-10T02:08:30;101253.13;;;14.05;53.41
8039;BME280;4062;49.844;8.120;2023-02-10T02:13:26;101253.13;;;14.03;53.36
8039;BME280;4062;49.844;8.120;2023-02-10T02:18:31;101260.19;;;14.06;53.34
8039;BME280;4062;49.844;8.120;2023-02-10T02:29:21;101268.09;;;14.15;53.31
8039;BME280;4062;49.844;8.120;2023-02-10T02:37:33;101274.28;;;14.20;53.45
8039;BME280;4062;49.844;8.120;2023-02-10T02:39:34;101271.59;;;14.20;53.40
8039;BME280;4062;49.844;8.120;2023-02-10T02:41:36;101277.78;;;14.21;53.58
8039;BME280;4062;49.844;8.120;2023-02-10T02:43:39;101278.69;;;14.21;53.49
8039;BME280;4062;49.844;8.120;2023-02-10T02:46:45;101282.25;;;14.20;53.33
8039;BME280;4062;49.844;8.120;2023-02-10T02:51:32;101289.31;;;14.20;53.37
8039;BME280;4062;49.844;8.120;2023-02-10T02:54:25;101281.34;;;14.20;53.44
8039;BME280;4062;49.844;8.120;2023-02-10T02:59:21;101281.38;;;14.18;53.54
8039;BME280;4062;49.844;8.120;2023-02-10T03:01:57;101282.25;;;14.17;53.36
8039;BME280;4062;49.844;8.120;2023-02-10T03:04:00;101288.47;;;14.16;53.30
8039;BME280;4062;49.844;8.120;2023-02-10T03:06:03;101272.50;;;14.16;53.32
8039;BME280;4062;49.844;8.120;2023-02-10T03:08:04;101278.72;;;14.17;53.35
8039;BME280;4062;49.844;8.120;2023-02-10T03:10:05;101279.63;;;14.14;53.21
8039;BME280;4062;49.844;8.120;2023-02-10T03:12:07;101276.97;;;14.14;53.34
8039;BME280;4062;49.844;8.120;2023-02-10T03:14:08;101278.75;;;14.14;53.36
8039;BME280;4062;49.844;8.120;2023-02-10T03:16:08;101273.47;;;14.12;53.30
8039;BME280;4062;49.844;8.120;2023-02-10T03:18:09;101268.13;;;14.12;53.26
8039;BME280;4062;49.844;8.120;2023-02-10T03:20:10;101269.91;;;14.12;53.23
8039;BME280;4062;49.844;8.120;2023-02-10T03:22:11;101275.22;;;14.12;53.33
8039;BME280;4062;49.844;8.120;2023-02-10T03:24:13;101271.69;;;14.11;53.33
8039;BME280;4062;49.844;8.120;2023-02-10T03:26:14;101269.94;;;14.10;53.32
8039;BME280;4062;49.844;8.120;2023-02-10T03:28:15;101279.66;;;14.10;53.24
8039;BME280;4062;49.844;8.120;2023-02-10T03:30:16;101279.66;;;14.10;53.33
8039;BME280;4062;49.844;8.120;2023-02-10T03:32:17;101282.34;;;14.08;53.22
8039;BME280;4062;49.844;8.120;2023-02-10T03:34:18;101278.78;;;14.09;53.25
8039;BME280;4062;49.844;8.120;2023-02-10T03:36:19;101285.00;;;14.08;53.31
8039;BME280;4062;49.844;8.120;2023-02-10T03:38:20;101282.34;;;14.08;53.39
8039;BME280;4062;49.844;8.120;2023-02-10T03:40:21;101287.69;;;14.06;53.32
8039;BME280;4062;49.844;8.120;2023-02-10T03:42:22;101285.03;;;14.06;53.32
8039;BME280;4062;49.844;8.120;2023-02-10T03:44:23;101280.59;;;14.05;53.50
8039;BME280;4062;49.844;8.120;2023-02-10T03:46:23;101279.69;;;14.05;53.28
8039;BME280;4062;49.844;8.120;2023-02-10T03:48:24;101287.66;;;14.05;53.28
8039;BME280;4062;49.844;8.120;2023-02-10T03:50:31;101285.00;;;14.05;53.10
8039;BME280;4062;49.844;8.120;2023-02-10T03:52:32;101284.16;;;14.03;53.37
8039;BME280;4062;49.844;8.120;2023-02-10T03:54:33;101279.75;;;14.02;53.43
8039;BME280;4062;49.844;8.120;2023-02-10T03:56:34;101282.41;;;14.02;53.46
8039;BME280;4062;49.844;8.120;2023-02-10T03:58:35;101289.47;;;14.01;53.49
8039;BME280;4062;49.844;8.120;2023-02-10T04:00:36;101292.13;;;14.01;53.18
8039;BME280;4062;49.844;8.120;2023-02-10T04:02:37;101295.69;;;14.02;53.29
8039;BME280;4062;49.844;8.120;2023-02-10T04:04:38;101291.25;;;14.01;53.46
8039;BME280;4062;49.844;8.120;2023-02-10T04:06:39;101290.34;;;14.03;53.46
8039;BME280;4062;49.844;8.120;2023-02-10T04:08:40;101290.34;;;14.03;53.42
8039;BME280;4062;49.844;8.120;2023-02-10T04:10:41;101295.66;;;14.06;53.41
8039;BME280;4062;49.844;8.120;2023-02-10T04:12:43;101292.09;;;14.07;53.62
8039;BME280;4062;49.844;8.120;2023-02-10T04:14:44;101300.06;;;14.09;53.51
8039;BME280;4062;49.844;8.120;2023-02-10T04:16:45;101299.13;;;14.12;53.19
8039;BME280;4062;49.844;8.120;2023-02-10T04:18:45;101304.47;;;14.13;53.27
8039;BME280;4062;49.844;8.120;2023-02-10T04:20:46;101311.53;;;14.16;53.36
8039;BME280;4062;49.844;8.120;2023-02-10T04:22:47;101314.16;;;14.17;53.46
8039;BME280;4062;49.844;8.120;2023-02-10T04:24:48;101315.03;;;14.19;53.30
8039;BME280;4062;49.844;8.120;2023-02-10T04:26:50;101307.06;;;14.19;53.41
8039;BME280;4062;49.844;8.120;2023-02-10T04:28:51;101307.94;;;14.20;53.27
8039;BME280;4062;49.844;8.120;2023-02-10T04:30:58;101312.34;;;14.21;53.25
8039;BME280;4062;49.844;8.120;2023-02-10T04:32:59;101314.16;;;14.20;53.38
8039;BME280;4062;49.844;8.120;2023-02-10T04:35:00;101313.25;;;14.20;53.38
8039;BME280;4062;49.844;8.120;2023-02-10T04:37:01;101314.16;;;14.20;53.39
8039;BME280;4062;49.844;8.120;2023-02-10T04:39:02;101312.38;;;14.19;53.47
8039;BME280;4062;49.844;8.120;2023-02-10T04:41:03;101315.94;;;14.18;53.37
8039;BME280;4062;49.844;8.120;2023-02-10T04:43:05;101323.88;;;14.20;53.47
8039;BME280;4062;49.844;8.120;2023-02-10T04:45:07;101322.13;;;14.19;53.43
8039;BME280;4062;49.844;8.120;2023-02-10T04:47:08;101321.25;;;14.18;53.39
8039;BME280;4062;49.844;8.120;2023-02-10T04:49:09;101323.94;;;14.17;53.46
8039;BME280;4062;49.844;8.120;2023-02-10T04:51:11;101323.03;;;14.16;53.45
8039;BME280;4062;49.844;8.120;2023-02-10T04:53:12;101320.38;;;14.16;53.42
8039;BME280;4062;49.844;8.120;2023-02-10T04:55:13;101322.16;;;14.16;53.41
8039;BME280;4062;49.844;8.120;2023-02-10T04:57:14;101325.69;;;14.16;53.29
8039;BME280;4062;49.844;8.120;2023-02-10T04:59:15;101323.91;;;14.15;53.55
8039;BME280;4062;49.844;8.120;2023-02-10T05:01:16;101335.44;;;14.14;53.33
8039;BME280;4062;49.844;8.120;2023-02-10T05:03:17;101337.22;;;14.15;53.41
8039;BME280;4062;49.844;8.120;2023-02-10T05:05:18;101339.88;;;14.14;53.25
8039;BME280;4062;49.844;8.120;2023-02-10T05:07:19;101350.53;;;14.14;53.32
8039;BME280;4062;49.844;8.120;2023-02-10T05:09:20;101351.41;;;14.13;53.26
8039;BME280;4062;49.844;8.120;2023-02-10T05:11:21;101351.44;;;14.11;53.29
8039;BME280;4062;49.844;8.120;2023-02-10T05:13:22;101350.53;;;14.11;53.32
8039;BME280;4062;49.844;8.120;2023-02-10T05:15:23;101348.75;;;14.10;53.30
8039;BME280;4062;49.844;8.120;2023-02-10T05:17:24;101355.00;;;14.09;53.28
8039;BME280;4062;49.844;8.120;2023-02-10T05:19:25;101349.69;;;14.09;53.26
8039;BME280;4062;49.844;8.120;2023-02-10T05:21:26;101350.56;;;14.09;53.34
8039;BME280;4062;49.844;8.120;2023-02-10T05:23:28;101353.22;;;14.07;53.32
8039;BME280;4062;49.844;8.120;2023-02-10T05:25:29;101355.88;;;14.07;53.35
8039;BME280;4062;49.844;8.120;2023-02-10T05:27:30;101362.09;;;14.06;53.30
8039;BME280;4062;49.844;8.120;2023-02-10T05:29:31;101362.09;;;14.06;53.16
8039;BME280;4062;49.844;8.120;2023-02-10T05:31:31;101358.53;;;14.06;53.31
8039;BME280;4062;49.844;8.120;2023-02-10T05:33:34;101370.06;;;14.06;53.34
8039;BME280;4062;49.844;8.120;2023-02-10T05:35:35;101361.22;;;14.04;53.23
8039;BME280;4062;49.844;8.120;2023-02-10T05:37:36;101364.75;;;14.05;53.35
8039;BME280;4062;49.844;8.120;2023-02-10T05:39:37;101361.22;;;14.04;53.60
8039;BME280;4062;49.844;8.120;2023-02-10T05:41:38;101358.59;;;14.03;53.25
8039;BME280;4062;49.844;8.120;2023-02-10T05:43:39;101364.75;;;14.03;53.42
8039;BME280;4062;49.844;8.120;2023-02-10T05:45:40;101357.69;;;14.02;53.25
8039;BME280;4062;49.844;8.120;2023-02-10T05:47:42;101359.47;;;14.02;53.28
8039;BME280;4062;49.844;8.120;2023-02-10T05:49:43;101359.47;;;14.02;53.33
8039;BME280;4062;49.844;8.120;2023-02-10T05:51:44;101352.38;;;14.02;53.29
8039;BME280;4062;49.844;8.120;2023-02-10T05:53:45;101354.16;;;14.02;53.36
8039;BME280;4062;49.844;8.120;2023-02-10T05:55:47;101343.50;;;14.03;53.38
8039;BME280;4062;49.844;8.120;2023-02-10T05:57:48;101355.03;;;14.04;53.32
8039;BME280;4062;49.844;8.120;2023-02-10T05:59:51;101356.78;;;14.05;53.37
8039;BME280;4062;49.844;8.120;2023-02-10T06:01:52;101354.13;;;14.06;53.48
8039;BME280;4062;49.844;8.120;2023-02-10T06:03:53;101362.97;;;14.09;53.33
8039;BME280;4062;49.844;8.120;2023-02-10T06:05:54;101368.25;;;14.12;53.37
8039;BME280;4062;49.844;8.120;2023-02-10T06:07:55;101367.38;;;14.13;53.31
8039;BME280;4062;49.844;8.120;2023-02-10T06:09:56;101354.94;;;14.16;53.40
8039;BME280;4062;49.844;8.120;2023-02-10T06:11:57;101364.66;;;14.17;53.46
8039;BME280;4062;49.844;8.120;2023-02-10T06:13:58;101360.25;;;14.18;53.39
8039;BME280;4062;49.844;8.120;2023-02-10T06:15:59;101362.88;;;14.19;53.28
8039;BME280;4062;49.844;8.120;2023-02-10T06:18:02;101361.09;;;14.20;53.27
8039;BME280;4062;49.844;8.120;2023-02-10T06:20:03;101362.00;;;14.20;53.51
8039;BME280;4062;49.844;8.120;2023-02-10T06:22:06;101362.88;;;14.21;53.45
8039;BME280;4062;49.844;8.120;2023-02-10T06:24:07;101362.88;;;14.21;53.33
8039;BME280;4062;49.844;8.120;2023-02-10T06:26:10;101364.66;;;14.20;53.43
8039;BME280;4062;49.844;8.120;2023-02-10T06:28:12;101368.19;;;14.21;53.39
8039;BME280;4062;49.844;8.120;2023-02-10T06:30:13;101355.78;;;14.20;53.32
8039;BME280;4062;49.844;8.120;2023-02-10T06:32:14;101354.03;;;14.20;53.30
8039;BME280;4062;49.844;8.120;2023-02-10T06:34:15;101353.16;;;14.18;53.40
8039;BME280;4062;49.844;8.120;2023-02-10T06:36:16;101347.81;;;14.18;53.51
8039;BME280;4062;49.844;8.120;2023-02-10T06:38:17;101343.38;;;14.19;53.55
8039;BME280;4062;49.844;8.120;2023-02-10T06:40:18;101349.63;;;14.18;53.35
8039;BME280;4062;49.844;8.120;2023-02-10T06:42:20;101357.59;;;14.18;53.35
8039;BME280;4062;49.844;8.120;2023-02-10T06:44:20;101355.81;;;14.17;53.41
8039;BME280;4062;49.844;8.120;2023-02-10T06:46:21;101364.66;;;14.17;53.34
8039;BME280;4062;49.844;8.120;2023-02-10T06:48:22;101368.22;;;14.16;53.26
8039;BME280;4062;49.844;8.120;2023-02-10T06:50:23;101367.34;;;14.16;53.34
8039;BME280;4062;49.844;8.120;2023-02-10T06:52:24;101367.34;;;14.14;53.23
8039;BME280;4062;49.844;8.120;2023-02-10T06:54:27;101370.00;;;14.14;53.29
8039;BME280;4062;49.844;8.120;2023-02-10T06:56:27;101373.56;;;14.13;53.17
8039;BME280;4062;49.844;8.120;2023-02-10T06:58:28;101368.25;;;14.13;53.14
8039;BME280;4062;49.844;8.120;2023-02-10T07:00:30;101375.34;;;14.13;53.28
8039;BME280;4062;49.844;8.120;2023-02-10T07:02:33;101372.69;;;14.13;53.22
8039;BME280;4062;49.844;8.120;2023-02-10T07:04:34;101374.47;;;14.12;53.09
8039;BME280;4062;49.844;8.120;2023-02-10T07:06:35;101378.00;;;14.11;53.11
8039;BME280;4062;49.844;8.120;2023-02-10T07:08:36;101378.00;;;14.10;53.06
8039;BME280;4062;49.844;8.120;2023-02-10T07:10:37;101374.47;;;14.09;53.15
8039;BME280;4062;49.844;8.120;2023-02-10T07:12:38;101373.59;;;14.09;52.92
8039;BME280;4062;49.844;8.120;2023-02-10T07:14:39;101385.09;;;14.09;53.27
8039;BME280;4062;49.844;8.120;2023-02-10T07:16:40;101380.69;;;14.08;53.00
8039;BME280;4062;49.844;8.120;2023-02-10T07:18:41;101381.56;;;14.07;53.16
8039;BME280;4062;49.844;8.120;2023-02-10T07:20:42;101394.00;;;14.06;53.30
8039;BME280;4062;49.844;8.120;2023-02-10T07:22:43;101394.00;;;14.06;53.10
8039;BME280;4062;49.844;8.120;2023-02-10T07:24:44;101401.97;;;14.06;53.32
8039;BME280;4062;49.844;8.120;2023-02-10T07:26:45;101411.69;;;14.06;53.17
8039;BME280;4062;49.844;8.120;2023-02-10T07:28:46;101402.84;;;14.05;53.09
8039;BME280;4062;49.844;8.120;2023-02-10T07:30:47;101402.88;;;14.04;53.20
8039;BME280;4062;49.844;8.120;2023-02-10T07:32:48;101397.56;;;14.04;53.31
8039;BME280;4062;49.844;8.120;2023-02-10T07:34:49;101401.97;;;14.03;53.35
8039;BME280;4062;49.844;8.120;2023-02-10T07:36:50;101399.31;;;14.03;53.29
8039;BME280;4062;49.844;8.120;2023-02-10T07:38:54;101399.31;;;14.03;53.27
8039;BME280;4062;49.844;8.120;2023-02-10T07:40:55;101405.53;;;14.02;53.23
8039;BME280;4062;49.844;8.120;2023-02-10T07:42:56;101406.41;;;14.03;53.26
8039;BME280;4062;49.844;8.120;2023-02-10T07:45:07;101405.53;;;14.02;53.28
8039;BME280;4062;49.844;8.120;2023-02-10T07:47:10;101408.19;;;14.04;53.32
8039;BME280;4062;49.844;8.120;2023-02-10T07:49:11;101408.16;;;14.05;53.23
8039;BME280;4062;49.844;8.120;2023-02-10T07:51:12;101410.81;;;14.07;53.28
8039;BME280;4062;49.844;8.120;2023-02-10T07:53:13;101405.50;;;14.09;53.32
8039;BME280;4062;49.844;8.120;2023-02-10T07:55:14;101414.34;;;14.12;53.36
8039;BME280;4062;49.844;8.120;2023-02-10T07:57:16;101413.44;;;14.15;53.29
8039;BME280;4062;49.844;8.120;2023-02-10T07:59:17;101423.16;;;14.17;53.22
8039;BME280;4062;49.844;8.120;2023-02-10T08:01:18;101417.81;;;14.19;53.36
8039;BME280;4062;49.844;8.120;2023-02-10T08:03:19;101424.91;;;14.21;53.51
8039;BME280;4062;49.844;8.120;2023-02-10T08:05:19;101425.78;;;14.22;53.37
8039;BME280;4062;49.844;8.120;2023-02-10T08:07:21;101425.75;;;14.23;53.42
8039;BME280;4062;49.844;8.120;2023-02-10T08:09:23;101422.22;;;14.23;53.50
8039;BME280;4062;49.844;8.120;2023-02-10T08:11:24;101426.66;;;14.24;53.41
8039;BME280;4062;49.844;8.120;2023-02-10T08:13:25;101421.34;;;14.24;53.30
8039;BME280;4062;49.844;8.120;2023-02-10T08:15:28;101422.22;;;14.25;53.23
8039;BME280;4062;49.844;8.120;2023-02-10T08:17:29;101428.44;;;14.25;53.41
8039;BME280;4062;49.844;8.120;2023-02-10T08:19:29;101429.31;;;14.26;53.20
8039;BME280;4062;49.844;8.120;2023-02-10T08:21:30;101433.75;;;14.23;53.33
8039;BME280;4062;49.844;8.120;2023-02-10T08:23:32;101434.63;;;14.24;53.34
8039;BME280;4062;49.844;8.120;2023-02-10T08:25:33;101431.06;;;14.23;53.42
8039;BME280;4062;49.844;8.120;2023-02-10T08:27:34;101432.88;;;14.23;53.16
8039;BME280;4062;49.844;8.120;2023-02-10T08:29:34;101430.22;;;14.23;53.29
8039;BME280;4062;49.844;8.120;2023-02-10T08:31:35;101428.44;;;14.22;53.41
8039;BME280;4062;49.844;8.120;2023-02-10T08:33:38;101435.53;;;14.21;53.18
8039;BME280;4062;49.844;8.120;2023-02-10T08:35:39;101434.66;;;14.21;53.04
8039;BME280;4062;49.844;8.120;2023-02-10T08:37:46;101439.06;;;14.22;53.28
8039;BME280;4062;49.844;8.120;2023-02-10T08:39:47;101437.31;;;14.19;53.41
8039;BME280;4062;49.844;8.120;2023-02-10T08:41:48;101440.84;;;14.20;53.26
8039;BME280;4062;49.844;8.120;2023-02-10T08:43:49;101443.53;;;14.18;53.25
8039;BME280;4062;49.844;8.120;2023-02-10T08:45:50;101440.88;;;14.18;53.27
8039;BME280;4062;49.844;8.120;2023-02-10T08:47:51;101443.56;;;14.17;53.25
8039;BME280;4062;49.844;8.120;2023-02-10T08:49:52;101437.34;;;14.16;53.32
8039;BME280;4062;49.844;8.120;2023-02-10T08:51:54;101433.81;;;14.16;53.15
8039;BME280;4062;49.844;8.120;2023-02-10T08:53:55;101434.69;;;14.16;53.12
8039;BME280;4062;49.844;8.120;2023-02-10T08:56:04;101433.81;;;14.16;53.09
8039;BME280;4062;49.844;8.120;2023-02-10T08:58:05;101433.78;;;14.14;53.49
8039;BME280;4062;49.844;8.120;2023-02-10T09:00:07;101437.38;;;14.13;53.31
8039;BME280;4062;49.844;8.120;2023-02-10T09:02:11;101440.03;;;14.13;53.05
8039;BME280;4062;49.844;8.120;2023-02-10T09:04:12;101439.13;;;14.13;53.19
8039;BME280;4062;49.844;8.120;2023-02-10T09:06:19;101442.69;;;14.12;53.11
8039;BME280;4062;49.844;8.120;2023-02-10T09:08:21;101440.03;;;14.12;53.16
8039;BME280;4062;49.844;8.120;2023-02-10T09:10:22;101446.22;;;14.11;53.17
8039;BME280;4062;49.844;8.120;2023-02-10T09:12:23;101446.22;;;14.11;53.03
8039;BME280;4062;49.844;8.120;2023-02-10T09:14:24;101446.25;;;14.09;53.18
8039;BME280;4062;49.844;8.120;2023-02-10T09:16:25;101443.59;;;14.09;53.32
8039;BME280;4062;49.844;8.120;2023-02-10T09:18:26;101452.44;;;14.08;53.22
8039;BME280;4062;49.844;8.120;2023-02-10T09:20:26;101451.56;;;14.09;53.22
8039;BME280;4062;49.844;8.120;2023-02-10T09:22:27;101461.31;;;14.09;53.09
8039;BME280;4062;49.844;8.120;2023-02-10T09:24:28;101456.91;;;14.07;53.32
8039;BME280;4062;49.844;8.120;2023-02-10T09:26:29;101465.75;;;14.06;53.14
8039;BME280;4062;49.844;8.120;2023-02-10T09:28:30;101461.31;;;14.07;53.39
8039;BME280;4062;49.844;8.120;2023-02-10T09:30:31;101461.31;;;14.07;53.09
8039;BME280;4062;49.844;8.120;2023-02-10T09:32:32;101459.53;;;14.06;53.27
8039;BME280;4062;49.844;8.120;2023-02-10T09:34:33;101463.09;;;14.05;53.28
8039;BME280;4062;49.844;8.120;2023-02-10T09:36:34;101466.66;;;14.05;53.13
8039;BME280;4062;49.844;8.120;2023-02-10T09:38:34;101464.00;;;14.05;53.31
8039;BME280;4062;49.844;8.120;2023-02-10T09:41:15;101461.34;;;14.05;53.26
8039;BME280;4062;49.844;8.120;2023-02-10T09:46:08;101468.41;;;14.08;53.15
8039;BME280;4062;49.844;8.120;2023-02-10T09:53:03;101461.25;;;14.16;53.33
8039;BME280;4062;49.844;8.120;2023-02-10T09:57:38;101464.78;;;14.23;53.38
8039;BME280;4062;49.844;8.120;2023-02-10T09:59:42;101470.06;;;14.25;53.30
8039;BME280;4062;49.844;8.120;2023-02-10T10:01:49;101471.84;;;14.27;53.33
8039;BME280;4062;49.844;8.120;2023-02-10T10:04:07;101474.50;;;14.27;53.48
8039;BME280;4062;49.844;8.120;2023-02-10T10:06:38;101477.16;;;14.29;53.22
8039;BME280;4062;49.844;8.120;2023-02-10T10:11:53;101483.34;;;14.29;53.32
8039;BME280;4062;49.844;8.120;2023-02-10T10:13:55;101482.47;;;14.29;53.37
8039;BME280;4062;49.844;8.120;2023-02-10T10:16:19;101485.13;;;14.29;53.44
8039;BME280;4062;49.844;8.120;2023-02-10T10:19:26;101482.47;;;14.29;53.26
8039;BME280;4062;49.844;8.120;2023-02-10T10:22:11;101473.59;;;14.28;53.26
8039;BME280;4062;49.844;8.120;2023-02-10T10:27:14;101478.06;;;14.26;53.10
8039;BME280;4062;49.844;8.120;2023-02-10T10:31:36;101479.81;;;14.26;53.14
8039;BME280;4062;49.844;8.120;2023-02-10T10:33:51;101472.72;;;14.25;53.27
8039;BME280;4062;49.844;8.120;2023-02-10T10:35:52;101468.28;;;14.23;53.33
8039;BME280;4062;49.844;8.120;2023-02-10T10:37:55;101467.44;;;14.23;53.03
8039;BME280;4062;49.844;8.120;2023-02-10T10:40:02;101470.06;;;14.25;53.21
8039;BME280;4062;49.844;8.120;2023-02-10T10:44:24;101469.22;;;14.22;53.05
8039;BME280;4062;49.844;8.120;2023-02-10T10:49:09;101464.78;;;14.21;52.98
8039;BME280;4062;49.844;8.120;2023-02-10T10:51:11;101452.38;;;14.20;52.96
8039;BME280;4062;49.844;8.120;2023-02-10T10:53:33;101450.63;;;14.19;52.85
8039;BME280;4062;49.844;8.120;2023-02-10T10:56:01;101450.63;;;14.18;53.09
8039;BME280;4062;49.844;8.120;2023-02-10T10:58:30;101455.94;;;14.16;53.11
8039;BME280;4062;49.844;8.120;2023-02-10T11:00:32;101455.94;;;14.16;53.03
8039;BME280;4062;49.844;8.120;2023-02-10T11:02:33;101452.41;;;14.16;53.08
8039;BME280;4062;49.844;8.120;2023-02-10T11:04:34;101446.19;;;14.15;52.95
8039;BME280;4062;49.844;8.120;2023-02-10T11:06:37;101447.09;;;14.14;53.18
8039;BME280;4062;49.844;8.120;2023-02-10T11:08:52;101449.75;;;14.14;53.01
8039;BME280;4062;49.844;8.120;2023-02-10T11:10:56;101450.66;;;14.15;52.79
8039;BME280;4062;49.844;8.120;2023-02-10T11:12:58;101444.44;;;14.13;53.10
8039;BME280;4062;49.844;8.120;2023-02-10T11:15:02;101446.25;;;14.12;53.17
8039;BME280;4062;49.844;8.120;2023-02-10T11:17:05;101444.47;;;14.11;52.98
8039;BME280;4062;49.844;8.120;2023-02-10T11:19:19;101430.28;;;14.12;52.95
8039;BME280;4062;49.844;8.120;2023-02-10T11:21:20;101432.03;;;14.12;52.89
8039;BME280;4062;49.844;8.120;2023-02-10T11:23:21;101429.41;;;14.10;52.99
8039;BME280;4062;49.844;8.120;2023-02-10T11:25:35;101432.94;;;14.11;53.11
8039;BME280;4062;49.844;8.120;2023-02-10T11:27:36;101434.72;;;14.10;53.05
8039;BME280;4062;49.844;8.120;2023-02-10T11:29:47;101444.47;;;14.10;53.14
8039;BME280;4062;49.844;8.120;2023-02-10T11:31:52;101442.72;;;14.09;53.08
8039;BME280;4062;49.844;8.120;2023-02-10T11:36:33;101444.47;;;14.10;53.21
8039;BME280;4062;49.844;8.120;2023-02-10T11:38:36;101441.81;;;14.08;53.18
8039;BME280;4062;49.844;8.120;2023-02-10T11:40:56;101442.72;;;14.09;53.12
8039;BME280;4062;49.844;8.120;2023-02-10T11:42:59;101445.34;;;14.10;53.06
8039;BME280;4062;49.844;8.120;2023-02-10T11:47:15;101445.34;;;14.12;53.04
8039;BME280;4062;49.844;8.120;2023-02-10T11:49:19;101435.59;;;14.12;53.13
8039;BME280;4062;49.844;8.120;2023-02-10T11:51:19;101436.44;;;14.14;53.27
8039;BME280;4062;49.844;8.120;2023-02-10T11:53:25;101432.03;;;14.15;53.30
8039;BME280;4062;49.844;8.120;2023-02-10T11:55:58;101423.19;;;14.16;53.23